Time;durP1;ratioP1;P1;durP2;ratioP2;P2;SDS_P1;SDS_P2;PMS_P1;PMS_P2;Temp;Humidity;BMP_temperature;BMP_pressure;BME280_temperature;BME280_humidity;BME280_pressure;Samples;Min_cycle;Max_cycle;Signal;HPM_P1;HPM_P2
2022/05/16 00:02:00;;;;;;;0.00;0.00;;;13.10;99.90;;;;;;4867949;29;20045;-65
2022/05/16 00:04:26;;;;;;;0.00;0.00;;;12.90;99.90;;;;;;4868290;29;20044;-65
2022/05/16 00:06:52;;;;;;;0.00;0.00;;;12.80;99.90;;;;;;4868168;29;20052;-66
2022/05/16 00:09:17;;;;;;;0.00;0.00;;;12.90;99.90;;;;;;4866567;29;20140;-66
2022/05/16 00:11:43;;;;;;;0.00;0.00;;;13.10;99.90;;;;;;4868257;29;20068;-66
2022/05/16 00:14:09;;;;;;;0.00;0.00;;;12.90;99.90;;;;;;4868211;29;20436;-65
2022/05/16 00:16:34;;;;;;;0.00;0.00;;;12.90;99.90;;;;;;4866494;29;20057;-66
2022/05/16 00:19:00;;;;;;;0.00;0.00;;;12.90;99.90;;;;;;4867369;29;20044;-65
2022/05/16 00:21:25;;;;;;;0.00;0.00;;;13.00;99.90;;;;;;4868029;29;20045;-65
2022/05/16 00:23:51;;;;;;;0.00;0.00;;;12.90;99.90;;;;;;4868091;29;20049;-66
2022/05/16 00:26:17;;;;;;;0.00;0.00;;;13.50;99.90;;;;;;4849940;29;20084;-66
2022/05/16 00:28:42;;;;;;;0.00;0.00;;;13.00;99.90;;;;;;4868097;29;20789;-66
2022/05/16 00:31:08;;;;;;;0.00;0.00;;;12.80;99.90;;;;;;4867708;29;20742;-65
2022/05/16 00:33:33;;;;;;;0.00;0.00;;;12.90;99.90;;;;;;4866581;29;20618;-65
2022/05/16 00:36:00;;;;;;;0.00;0.00;;;13.00;99.90;;;;;;4867448;29;20045;-65
2022/05/16 00:38:25;;;;;;;0.00;0.00;;;12.80;99.90;;;;;;4867687;29;20041;-65
2022/05/16 00:40:53;;;;;;;0.00;0.00;;;13.00;99.90;;;;;;4867069;29;20072;-65
2022/05/16 00:43:53;;;;;;;0.00;0.00;;;12.70;99.90;;;;;;4866708;29;20059;-65
2022/05/16 00:46:19;;;;;;;0.10;0.10;;;12.70;99.90;;;;;;4859892;29;20085;-65
2022/05/16 00:48:47;;;;;;;0.00;0.00;;;12.70;99.90;;;;;;4885146;29;20488;-66
2022/05/16 00:51:22;;;;;;;0.00;0.00;;;13.10;99.90;;;;;;4886866;29;20116;-65
2022/05/16 00:53:50;;;;;;;0.00;0.00;;;12.70;99.90;;;;;;4885926;29;20095;-65
2022/05/16 00:56:17;;;;;;;0.00;0.00;;;12.80;99.90;;;;;;4884449;29;20045;-66
2022/05/16 00:58:43;;;;;;;0.00;0.00;;;12.70;99.90;;;;;;4886870;29;20080;-66
2022/05/16 01:06:39;;;;;;;0.00;0.00;;;12.70;99.90;;;;;;4886001;29;20052;-66
2022/05/16 01:09:05;;;;;;;0.00;0.00;;;12.60;99.90;;;;;;4867706;29;20053;-65
2022/05/16 01:11:33;;;;;;;0.00;0.00;;;13.20;99.90;;;;;;4885947;29;20051;-65
2022/05/16 01:13:59;;;;;;;0.00;0.00;;;12.50;99.90;;;;;;4885876;29;20064;-65
2022/05/16 01:16:24;;;;;;;0.00;0.00;;;12.90;99.90;;;;;;4866828;29;20445;-65
2022/05/16 01:18:50;;;;;;;0.00;0.00;;;12.60;99.90;;;;;;4850543;29;20045;-65
2022/05/16 01:21:38;;;;;;;0.08;0.08;;;13.10;99.90;;;;;;4867163;29;20093;-69
2022/05/16 01:24:09;;;;;;;0.00;0.00;;;12.40;99.90;;;;;;4866480;29;20064;-65
2022/05/16 01:26:35;;;;;;;0.00;0.00;;;12.40;99.90;;;;;;4867155;29;20092;-64
2022/05/16 01:29:02;;;;;;;0.00;0.00;;;12.40;99.90;;;;;;4867575;29;20048;-65
2022/05/16 01:31:29;;;;;;;0.00;0.00;;;12.30;99.90;;;;;;4870979;29;20045;-65
2022/05/16 01:33:54;;;;;;;0.00;0.00;;;12.30;99.90;;;;;;4854536;29;20041;-66
2022/05/16 01:36:20;;;;;;;0.00;0.00;;;12.20;99.90;;;;;;4870597;29;20120;-66
2022/05/16 01:38:46;;;;;;;0.00;0.00;;;13.00;99.90;;;;;;4869996;29;20045;-67
2022/05/16 01:41:21;;;;;;;0.00;0.00;;;12.30;99.90;;;;;;4871029;29;20095;-65
2022/05/16 01:43:55;;;;;;;0.00;0.00;;;12.60;99.90;;;;;;4854155;29;20175;-66
2022/05/16 01:46:25;;;;;;;0.00;0.00;;;12.30;99.90;;;;;;4863116;29;20051;-65
2022/05/16 01:48:52;;;;;;;0.05;0.05;;;12.30;99.90;;;;;;4870872;29;20045;-65
2022/05/16 01:51:18;;;;;;;0.00;0.00;;;12.70;99.90;;;;;;4870846;29;20048;-66
2022/05/16 01:53:45;;;;;;;0.00;0.00;;;12.40;99.90;;;;;;4870048;29;20116;-66
2022/05/16 01:56:11;;;;;;;0.00;0.00;;;12.30;99.90;;;;;;4870671;29;20055;-64
2022/05/16 01:58:37;;;;;;;0.00;0.00;;;12.30;99.90;;;;;;4870005;29;20520;-65
2022/05/16 02:01:04;;;;;;;0.00;0.00;;;12.20;99.90;;;;;;4853418;29;20041;-65
2022/05/16 02:03:30;;;;;;;0.00;0.00;;;12.30;99.90;;;;;;4870482;29;20057;-65
2022/05/16 02:05:56;;;;;;;0.00;0.00;;;12.20;99.90;;;;;;4870341;29;20889;-66
2022/05/16 02:08:21;;;;;;;0.00;0.00;;;12.20;99.90;;;;;;4870065;29;20048;-66
2022/05/16 02:10:48;;;;;;;0.00;0.00;;;12.40;99.90;;;;;;4868703;29;20067;-65
2022/05/16 02:13:14;;;;;;;0.00;0.00;;;12.20;99.90;;;;;;4870532;29;20088;-65
2022/05/16 02:15:43;;;;;;;0.00;0.00;;;12.20;99.90;;;;;;4870282;29;20457;-66
2022/05/16 02:18:09;;;;;;;0.00;0.00;;;12.20;99.90;;;;;;4853202;29;20524;-65
2022/05/16 02:20:36;;;;;;;0.00;0.00;;;12.30;99.90;;;;;;4853650;29;20056;-65
2022/05/16 02:25:50;;;;;;;0.00;0.00;;;12.20;99.90;;;;;;4869347;29;20053;-65
2022/05/16 02:28:18;;;;;;;0.00;0.00;;;12.20;99.90;;;;;;4853262;29;20112;-67
2022/05/16 02:30:45;;;;;;;0.00;0.00;;;12.10;99.90;;;;;;4870259;29;20404;-66
2022/05/16 02:33:13;;;;;;;0.00;0.00;;;12.10;99.90;;;;;;4870022;29;20060;-65
2022/05/16 02:35:39;;;;;;;0.00;0.00;;;12.00;99.90;;;;;;4852775;29;20523;-66
2022/05/16 02:38:06;;;;;;;0.00;0.00;;;12.10;99.90;;;;;;4869606;29;20041;-65
2022/05/16 02:40:33;;;;;;;0.00;0.00;;;12.00;99.90;;;;;;4868013;29;20094;-65
2022/05/16 02:42:59;;;;;;;0.00;0.00;;;12.70;99.90;;;;;;4869827;29;20704;-65
2022/05/16 02:45:26;;;;;;;0.00;0.00;;;12.10;99.90;;;;;;4872231;29;20438;-65
2022/05/16 02:47:52;;;;;;;0.00;0.00;;;12.00;99.90;;;;;;4877061;29;20053;-65
2022/05/16 02:50:20;;;;;;;0.00;0.00;;;12.50;99.90;;;;;;4852871;29;20535;-66
2022/05/16 02:52:45;;;;;;;0.00;0.00;;;11.80;99.90;;;;;;4870048;29;20435;-66
2022/05/16 02:55:11;;;;;;;0.00;0.00;;;12.10;99.90;;;;;;4869182;29;20036;-65
2022/05/16 02:57:37;;;;;;;0.00;0.00;;;11.80;99.90;;;;;;4868597;29;20932;-65
2022/05/16 03:00:08;;;;;;;0.00;0.00;;;11.80;99.90;;;;;;4853023;29;20068;-65
2022/05/16 03:02:34;;;;;;;0.00;0.00;;;11.90;99.90;;;;;;4852695;29;20045;-65
2022/05/16 03:05:00;;;;;;;0.00;0.00;;;12.00;99.90;;;;;;4868903;29;20053;-65
2022/05/16 03:07:26;;;;;;;0.00;0.00;;;11.80;99.90;;;;;;4867881;29;20113;-65
2022/05/16 03:09:51;;;;;;;0.00;0.00;;;12.00;99.90;;;;;;4868137;29;20057;-65
2022/05/16 03:12:17;;;;;;;0.00;0.00;;;12.10;99.90;;;;;;4868457;29;20059;-65
2022/05/16 03:14:42;;;;;;;0.00;0.00;;;11.90;99.90;;;;;;4869682;29;21048;-66
2022/05/16 03:17:08;;;;;;;0.00;0.00;;;11.80;99.90;;;;;;4852668;29;20058;-65
2022/05/16 03:19:35;;;;;;;0.00;0.00;;;11.80;99.90;;;;;;4868998;29;20085;-65
2022/05/16 03:22:05;;;;;;;0.00;0.00;;;11.70;99.90;;;;;;4868728;29;20048;-65
2022/05/16 03:24:31;;;;;;;0.00;0.00;;;11.60;99.90;;;;;;4868404;29;20574;-65
2022/05/16 03:26:58;;;;;;;0.00;0.00;;;11.70;99.90;;;;;;4868779;29;20052;-65
2022/05/16 03:29:24;;;;;;;0.00;0.00;;;11.60;99.90;;;;;;4868226;29;20103;-65
2022/05/16 03:31:49;;;;;;;0.00;0.00;;;11.90;99.90;;;;;;4869274;29;20072;-66
2022/05/16 03:34:15;;;;;;;0.00;0.00;;;12.10;99.90;;;;;;4869266;29;20479;-65
2022/05/16 03:36:41;;;;;;;0.00;0.00;;;11.60;99.90;;;;;;4868600;29;20055;-65
2022/05/16 03:41:52;;;;;;;0.00;0.00;;;11.80;99.90;;;;;;4868639;29;20049;-66
2022/05/16 03:44:19;;;;;;;0.00;0.00;;;12.10;99.90;;;;;;4867798;29;20577;-65
2022/05/16 03:46:45;;;;;;;0.00;0.00;;;11.70;99.90;;;;;;4879563;29;20067;-65
2022/05/16 03:49:10;;;;;;;0.00;0.00;;;11.70;99.90;;;;;;4868748;29;20144;-65
2022/05/16 03:51:37;;;;;;;0.00;0.00;;;11.70;99.90;;;;;;4868056;29;20044;-65
2022/05/16 03:54:03;;;;;;;0.00;0.00;;;11.80;99.90;;;;;;4867378;29;20429;-65
2022/05/16 03:56:29;;;;;;;0.00;0.00;;;11.80;99.90;;;;;;4867979;29;20531;-65
2022/05/16 03:58:56;;;;;;;0.00;0.00;;;11.80;99.90;;;;;;4868381;29;20045;-65
2022/05/16 04:01:23;;;;;;;0.00;0.00;;;11.80;99.90;;;;;;4867321;29;20041;-65
2022/05/16 04:03:49;;;;;;;0.00;0.00;;;11.70;99.90;;;;;;4868648;29;20048;-66
2022/05/16 04:06:15;;;;;;;0.00;0.00;;;11.90;99.90;;;;;;4869270;29;20045;-65
2022/05/16 04:08:44;;;;;;;0.00;0.00;;;12.50;99.90;;;;;;4867332;29;20373;-66
2022/05/16 04:11:12;;;;;;;0.00;0.00;;;11.80;99.90;;;;;;4867964;29;20096;-65
2022/05/16 04:13:37;;;;;;;0.00;0.00;;;11.70;99.90;;;;;;4867855;29;20089;-65
2022/05/16 04:16:04;;;;;;;0.00;0.00;;;11.80;99.90;;;;;;4867757;29;20053;-66
2022/05/16 04:18:32;;;;;;;0.00;0.00;;;11.80;99.90;;;;;;4867749;29;20052;-65
2022/05/16 04:20:58;;;;;;;0.00;0.00;;;11.90;99.90;;;;;;4851169;29;20084;-65
2022/05/16 04:23:24;;;;;;;0.00;0.00;;;11.90;99.90;;;;;;4867396;29;20129;-66
2022/05/16 04:25:49;;;;;;;0.00;0.00;;;11.90;99.90;;;;;;4867428;29;20056;-66
2022/05/16 04:28:15;;;;;;;0.00;0.00;;;11.90;99.90;;;;;;4868274;29;20531;-65
2022/05/16 04:30:41;;;;;;;0.00;0.00;;;12.00;99.90;;;;;;4836111;29;20171;-65
2022/05/16 04:33:07;;;;;;;0.00;0.00;;;12.10;99.90;;;;;;4867628;29;20087;-65
2022/05/16 04:35:34;;;;;;;0.00;0.00;;;12.10;99.90;;;;;;4868049;29;20187;-65
2022/05/16 04:38:00;;;;;;;0.00;0.00;;;12.20;99.90;;;;;;4867850;29;20053;-66
2022/05/16 04:40:26;;;;;;;0.00;0.00;;;12.30;99.90;;;;;;4867071;29;20455;-65
2022/05/16 04:42:52;;;;;;;0.00;0.00;;;12.90;99.90;;;;;;4850589;29;20140;-66
2022/05/16 04:45:22;;;;;;;0.00;0.00;;;12.70;99.90;;;;;;4852916;29;20045;-66
2022/05/16 04:47:52;;;;;;;0.00;0.00;;;13.10;99.90;;;;;;4859068;29;20091;-66
2022/05/16 04:50:22;;;;;;;0.00;0.00;;;13.50;99.90;;;;;;4866731;29;20084;-66
2022/05/16 04:52:48;;;;;;;0.00;0.00;;;13.90;99.90;;;;;;4867616;29;20484;-66
2022/05/16 04:55:15;;;;;;;0.00;0.00;;;14.20;99.90;;;;;;4867379;29;20080;-65
2022/05/16 04:57:41;;;;;;;0.10;0.10;;;14.60;99.90;;;;;;4867319;29;20049;-66
2022/05/16 05:00:10;;;;;;;0.00;0.00;;;14.90;99.90;;;;;;4867900;29;20485;-65
2022/05/16 05:02:35;;;;;;;0.00;0.00;;;15.00;99.90;;;;;;4867528;29;20404;-66
2022/05/16 05:05:03;;;;;;;0.10;0.10;;;14.90;99.90;;;;;;4870911;29;20124;-65
2022/05/16 05:07:29;;;;;;;0.00;0.00;;;15.00;99.90;;;;;;4854729;29;20340;-65
2022/05/16 05:15:23;;;;;;;0.00;0.00;;;14.40;99.90;;;;;;4871118;29;20055;-66
2022/05/16 05:17:49;;;;;;;0.00;0.00;;;14.00;99.90;;;;;;4870474;29;20045;-65
2022/05/16 05:20:16;;;;;;;0.00;0.00;;;13.80;99.90;;;;;;4871586;29;20055;-66
2022/05/16 05:22:46;;;;;;;0.00;0.00;;;13.70;99.90;;;;;;4871332;29;20049;-67
2022/05/16 05:25:15;;;;;;;0.00;0.00;;;13.50;99.90;;;;;;4871019;29;20160;-66
2022/05/16 05:27:42;;;;;;;0.00;0.00;;;13.60;99.90;;;;;;4871645;29;20045;-66
2022/05/16 05:30:10;;;;;;;0.00;0.00;;;13.60;99.90;;;;;;4854389;29;20104;-65
2022/05/16 05:32:36;;;;;;;0.00;0.00;;;13.40;99.90;;;;;;4870779;29;20061;-65
2022/05/16 05:35:04;;;;;;;0.00;0.00;;;13.50;99.90;;;;;;4870393;29;20124;-65
2022/05/16 05:37:31;;;;;;;0.00;0.00;;;13.50;99.90;;;;;;4870701;29;20049;-66
2022/05/16 05:40:00;;;;;;;0.00;0.00;;;13.80;99.90;;;;;;4870274;29;20068;-65
2022/05/16 05:42:26;;;;;;;0.00;0.00;;;13.80;99.90;;;;;;4869995;29;20576;-66
2022/05/16 05:44:52;;;;;;;0.00;0.00;;;13.60;99.90;;;;;;4856096;29;20041;-65
2022/05/16 05:47:18;;;;;;;0.00;0.00;;;13.70;99.90;;;;;;4878788;29;20124;-65
2022/05/16 05:49:44;;;;;;;0.00;0.00;;;13.90;99.90;;;;;;4870591;29;20052;-65
2022/05/16 05:52:09;;;;;;;0.00;0.00;;;14.20;99.90;;;;;;4854177;29;20080;-66
2022/05/16 05:54:35;;;;;;;0.00;0.00;;;14.30;99.90;;;;;;4869680;29;20075;-65
2022/05/16 05:57:02;;;;;;;0.00;0.00;;;14.30;99.90;;;;;;4870469;29;20041;-66
2022/05/16 05:59:28;;;;;;;0.00;0.00;;;14.20;99.90;;;;;;4852950;29;20060;-65
2022/05/16 06:01:54;;;;;;;0.00;0.00;;;14.30;99.90;;;;;;4870471;29;20070;-66
2022/05/16 06:04:20;;;;;;;0.00;0.00;;;14.30;99.90;;;;;;4870125;29;20120;-66
2022/05/16 06:06:47;;;;;;;0.00;0.00;;;14.40;99.90;;;;;;4853012;29;20631;-67
2022/05/16 06:09:13;;;;;;;0.00;0.00;;;14.40;99.90;;;;;;4868333;29;20108;-66
2022/05/16 06:11:39;;;;;;;0.00;0.00;;;14.90;99.90;;;;;;4869567;29;20159;-66
2022/05/16 06:14:04;;;;;;;0.20;0.15;;;14.60;99.90;;;;;;4870496;29;20128;-65
2022/05/16 06:16:30;;;;;;;0.00;0.00;;;14.90;99.90;;;;;;4868392;29;20050;-66
2022/05/16 06:18:56;;;;;;;0.00;0.00;;;15.10;99.90;;;;;;4853111;29;20120;-65
2022/05/16 06:21:22;;;;;;;0.00;0.00;;;15.20;99.90;;;;;;4869725;29;20049;-65
2022/05/16 06:23:48;;;;;;;0.00;0.00;;;15.50;99.90;;;;;;4852311;29;20096;-66
2022/05/16 06:26:14;;;;;;;0.00;0.00;;;15.50;99.90;;;;;;4853994;29;20080;-66
2022/05/16 06:28:40;;;;;;;0.00;0.00;;;15.60;99.90;;;;;;4853076;29;20052;-67
2022/05/16 06:31:06;;;;;;;0.00;0.00;;;15.40;99.90;;;;;;4869474;29;20071;-66
2022/05/16 06:33:32;;;;;;;0.00;0.00;;;15.50;99.90;;;;;;4868836;29;20656;-66
2022/05/16 06:35:59;;;;;;;0.00;0.00;;;15.90;99.90;;;;;;4869676;29;20121;-66
2022/05/16 06:38:28;;;;;;;0.00;0.00;;;16.10;99.90;;;;;;4869101;29;20055;-66
2022/05/16 06:40:55;;;;;;;0.00;0.00;;;16.00;99.90;;;;;;4869522;29;20131;-65
2022/05/16 06:43:23;;;;;;;0.00;0.00;;;16.00;99.90;;;;;;4837516;29;20081;-65
2022/05/16 06:45:50;;;;;;;0.00;0.00;;;15.90;99.90;;;;;;4875775;29;20540;-65
2022/05/16 06:48:15;;;;;;;0.00;0.00;;;15.90;99.90;;;;;;4873682;29;20468;-68
2022/05/16 06:50:43;;;;;;;0.00;0.00;;;15.80;99.90;;;;;;4869827;29;20128;-67
2022/05/16 06:53:14;;;;;;;0.00;0.00;;;15.80;99.90;;;;;;4852187;29;20080;-65
2022/05/16 06:55:40;;;;;;;0.10;0.10;;;16.10;99.90;;;;;;4869106;29;20136;-65
2022/05/16 06:58:06;;;;;;;0.00;0.00;;;16.30;99.90;;;;;;4869019;29;20603;-65
2022/05/16 07:00:32;;;;;;;0.00;0.00;;;16.70;99.90;;;;;;4869011;29;20061;-65
2022/05/16 07:02:57;;;;;;;0.00;0.00;;;17.10;99.90;;;;;;4869569;29;20051;-65
2022/05/16 07:05:23;;;;;;;0.00;0.00;;;17.50;99.90;;;;;;4851924;29;20053;-66
2022/05/16 07:07:49;;;;;;;0.00;0.00;;;17.80;99.90;;;;;;4869421;29;20704;-65
2022/05/16 07:10:14;;;;;;;0.00;0.00;;;18.10;99.90;;;;;;4868518;29;20288;-65
2022/05/16 07:12:40;;;;;;;0.00;0.00;;;18.60;99.90;;;;;;4868746;29;20060;-61
2022/05/16 07:15:06;;;;;;;0.00;0.00;;;18.80;99.90;;;;;;4868645;29;20088;-66
2022/05/16 07:17:32;;;;;;;0.10;0.10;;;19.00;99.90;;;;;;4852066;29;20053;-66
2022/05/16 07:19:57;;;;;;;0.00;0.00;;;19.20;99.90;;;;;;4868724;29;20585;-66
2022/05/16 07:22:23;;;;;;;0.00;0.00;;;19.40;99.90;;;;;;4868250;29;20132;-66
2022/05/16 07:24:51;;;;;;;0.00;0.00;;;19.20;99.90;;;;;;4868173;29;20049;-66
2022/05/16 07:30:07;;;;;;;0.00;0.00;;;19.50;99.90;;;;;;4868634;29;20057;-66
2022/05/16 07:32:35;;;;;;;0.00;0.00;;;19.40;99.90;;;;;;4868589;29;20041;-66
2022/05/16 07:35:03;;;;;;;0.00;0.00;;;19.80;99.90;;;;;;4868753;29;20044;-66
2022/05/16 07:37:29;;;;;;;0.00;0.00;;;20.10;99.90;;;;;;4868469;29;20053;-66
2022/05/16 07:39:55;;;;;;;0.00;0.00;;;20.00;99.90;;;;;;4867903;29;20045;-66
2022/05/16 07:42:20;;;;;;;0.00;0.00;;;20.30;99.90;;;;;;4868318;29;20037;-66
2022/05/16 07:44:47;;;;;;;0.00;0.00;;;20.40;99.90;;;;;;4869568;29;20072;-67
2022/05/16 07:47:13;;;;;;;0.00;0.00;;;20.60;99.90;;;;;;4877415;29;20049;-66
2022/05/16 07:49:39;;;;;;;0.10;0.10;;;20.70;99.90;;;;;;4868232;29;20053;-66
2022/05/16 07:52:05;;;;;;;0.00;0.00;;;20.90;99.90;;;;;;4851450;29;20107;-66
2022/05/16 07:54:30;;;;;;;0.00;0.00;;;20.80;99.90;;;;;;4850275;29;20048;-66
2022/05/16 07:56:56;;;;;;;0.00;0.00;;;21.00;99.90;;;;;;4867788;29;20052;-66
2022/05/16 07:59:21;;;;;;;0.00;0.00;;;20.50;99.90;;;;;;4868307;29;20049;-65
2022/05/16 08:01:47;;;;;;;0.00;0.00;;;20.90;99.90;;;;;;4867906;29;20064;-66
2022/05/16 08:04:14;;;;;;;0.00;0.00;;;21.10;99.90;;;;;;4868710;29;20056;-66
2022/05/16 08:06:40;;;;;;;0.00;0.00;;;21.00;99.90;;;;;;4868293;29;20055;-66
2022/05/16 08:11:50;;;;;;;0.00;0.00;;;21.40;99.90;;;;;;4867937;29;20049;-67
2022/05/16 08:14:15;;;;;;;0.00;0.00;;;21.60;99.90;;;;;;4851102;29;20055;-67
2022/05/16 08:16:41;;;;;;;0.00;0.00;;;21.70;99.90;;;;;;4851727;29;20205;-68
2022/05/16 08:19:07;;;;;;;0.00;0.00;;;21.70;99.90;;;;;;4868038;29;20053;-66
2022/05/16 08:21:33;;;;;;;0.00;0.00;;;21.90;99.90;;;;;;4867807;29;20025;-67
2022/05/16 08:24:01;;;;;;;0.00;0.00;;;22.00;99.90;;;;;;4866870;29;20553;-67
2022/05/16 08:26:27;;;;;;;0.00;0.00;;;22.30;99.90;;;;;;4850727;29;20045;-67
2022/05/16 08:28:52;;;;;;;0.03;0.03;;;21.90;99.90;;;;;;4867968;29;20043;-67
2022/05/16 08:31:18;;;;;;;0.00;0.00;;;22.10;99.90;;;;;;4867688;29;20168;-67
2022/05/16 08:33:43;;;;;;;0.00;0.00;;;22.10;99.90;;;;;;4850648;29;20045;-67
2022/05/16 08:41:56;;;;;;;0.20;0.20;;;21.80;99.90;;;;;;4867606;29;20076;-67
2022/05/16 08:44:56;;;;;;;0.00;0.00;;;22.00;99.90;;;;;;4850485;29;20040;-66
2022/05/16 08:47:45;;;;;;;0.00;0.00;;;22.30;99.90;;;;;;4861805;29;20049;-67
2022/05/16 08:50:24;;;;;;;0.10;0.10;;;22.20;99.90;;;;;;4867658;29;20045;-67
2022/05/16 08:53:02;;;;;;;0.00;0.00;;;22.50;99.90;;;;;;4849686;29;20065;-67
2022/05/16 08:55:41;;;;;;;0.00;0.00;;;22.60;99.90;;;;;;4835543;29;20416;-66
2022/05/16 08:58:14;;;;;;;0.03;0.00;;;23.00;99.90;;;;;;4850602;29;20059;-67
2022/05/16 09:00:48;;;;;;;0.00;0.00;;;23.20;99.90;;;;;;4867574;29;20045;-67
2022/05/16 09:03:23;;;;;;;0.00;0.00;;;23.40;99.90;;;;;;4851215;29;20045;-66
2022/05/16 09:05:55;;;;;;;0.00;0.00;;;23.70;99.90;;;;;;4850378;29;20061;-67
2022/05/16 09:08:35;;;;;;;0.00;0.00;;;23.70;99.90;;;;;;4850012;29;20419;-66
2022/05/16 09:11:05;;;;;;;0.00;0.00;;;23.70;99.90;;;;;;4866629;29;20160;-67
2022/05/16 09:13:47;;;;;;;0.00;0.00;;;23.80;99.90;;;;;;4867331;29;20041;-66
2022/05/16 09:16:21;;;;;;;0.03;0.03;;;24.10;99.90;;;;;;4867417;29;20124;-66
2022/05/16 09:19:14;;;;;;;0.00;0.00;;;24.40;99.90;;;;;;4867258;29;20053;-67
2022/05/16 09:22:28;;;;;;;0.03;0.03;;;24.50;99.90;;;;;;4866746;29;20470;-66
2022/05/16 09:25:00;;;;;;;0.00;0.00;;;24.60;99.90;;;;;;4839439;29;20065;-66
2022/05/16 09:30:20;;;;;;;0.00;0.00;;;25.10;99.90;;;;;;4866221;29;20083;-67
2022/05/16 09:33:04;;;;;;;0.10;0.10;;;25.10;99.90;;;;;;4866839;29;20045;-67
2022/05/16 09:35:38;;;;;;;0.10;0.10;;;25.10;99.90;;;;;;4866237;29;20537;-68
2022/05/16 09:38:05;;;;;;;0.00;0.00;;;25.00;99.90;;;;;;4849824;29;20052;-67
2022/05/16 09:40:40;;;;;;;0.00;0.00;;;24.80;99.90;;;;;;4850294;29;20052;-63
2022/05/16 09:43:20;;;;;;;0.22;0.22;;;25.00;99.90;;;;;;4865546;29;20139;-68
2022/05/16 09:45:54;;;;;;;0.10;0.10;;;25.20;99.90;;;;;;4855610;29;20143;-70
2022/05/16 09:48:23;;;;;;;;;;;25.40;99.90;;;;;;4871178;29;20120;-66
2022/05/16 09:51:04;;;;;;;0.10;0.10;;;25.00;99.90;;;;;;4851824;29;19979;-66
2022/05/16 09:53:42;;;;;;;0.00;0.00;;;25.60;99.90;;;;;;4869357;29;20215;-69
2022/05/16 09:56:29;;;;;;;0.00;0.00;;;25.60;99.90;;;;;;4870490;29;20045;-69
2022/05/16 09:59:01;;;;;;;0.00;0.00;;;25.70;99.90;;;;;;4853187;29;20057;-69
2022/05/16 10:01:49;;;;;;;0.10;0.10;;;25.20;99.90;;;;;;4870326;29;20060;-69
2022/05/16 10:04:21;;;;;;;0.05;0.00;;;25.40;99.90;;;;;;4870212;29;20053;-70
2022/05/16 10:07:02;;;;;;;0.00;0.00;;;25.60;99.90;;;;;;4883841;29;20052;-69
2022/05/16 10:09:32;;;;;;;0.00;0.00;;;25.40;99.90;;;;;;4906102;29;20467;-70
2022/05/16 10:11:58;;;;;;;0.30;0.20;;;25.40;99.90;;;;;;4907287;29;20682;-69
2022/05/16 10:14:24;;;;;;;0.00;0.00;;;25.10;99.90;;;;;;4907758;29;20063;-69
2022/05/16 10:16:53;;;;;;;0.00;0.00;;;25.40;99.90;;;;;;4891285;29;20079;-69
2022/05/16 10:19:23;;;;;;;0.00;0.00;;;25.20;99.90;;;;;;4907891;29;20095;-71
2022/05/16 10:21:56;;;;;;;0.00;0.00;;;25.60;99.90;;;;;;4907660;29;20123;-66
2022/05/16 10:24:27;;;;;;;0.00;0.00;;;25.80;99.90;;;;;;4906185;29;20475;-66
2022/05/16 10:26:55;;;;;;;0.00;0.00;;;26.20;99.90;;;;;;4907533;29;20047;-69
2022/05/16 10:29:30;;;;;;;0.10;0.10;;;26.00;99.90;;;;;;4907320;29;20131;-70
2022/05/16 10:34:56;;;;;;;0.10;0.10;;;26.60;99.90;;;;;;4908890;29;20070;-73
2022/05/16 10:37:24;;;;;;;0.00;0.00;;;27.00;99.90;;;;;;4889588;29;20413;-63
2022/05/16 10:40:27;;;;;;;0.00;0.00;;;26.70;99.90;;;;;;4890101;29;20044;-67
2022/05/16 10:42:55;;;;;;;0.00;0.00;;;26.60;99.90;;;;;;4882425;29;20451;-66
2022/05/16 10:45:25;;;;;;;0.08;0.08;;;26.20;99.90;;;;;;4893271;29;20080;-67
2022/05/16 10:48:39;;;;;;;0.00;0.00;;;26.30;99.90;;;;;;4863127;29;20037;-66
2022/05/16 10:51:23;;;;;;;0.10;0.10;;;26.60;99.90;;;;;;4870729;29;20056;-66
2022/05/16 10:54:04;;;;;;;0.00;0.00;;;26.90;99.90;;;;;;4887344;29;20045;-67
2022/05/16 10:57:06;;;;;;;0.20;0.20;;;27.20;99.90;;;;;;4897848;29;20135;-66
2022/05/16 10:59:53;;;;;;;0.15;0.15;;;27.80;99.90;;;;;;4904874;29;20115;-67
2022/05/16 11:02:41;;;;;;;0.00;0.00;;;27.50;99.90;;;;;;4906071;29;20127;-65
2022/05/16 11:05:27;;;;;;;1.20;0.20;;;27.30;99.90;;;;;;4906231;29;20460;-64
2022/05/16 11:08:09;;;;;;;0.10;0.10;;;26.90;99.90;;;;;;4888669;29;20044;-65
2022/05/16 11:10:45;;;;;;;0.10;0.10;;;26.70;99.90;;;;;;4905882;29;20253;-64
2022/05/16 11:13:40;;;;;;;0.00;0.00;;;26.70;99.90;;;;;;4906755;29;20048;-64
2022/05/16 11:16:14;;;;;;;0.65;0.40;;;27.20;99.90;;;;;;4906572;29;20087;-65
2022/05/16 11:19:12;;;;;;;0.10;0.10;;;27.00;99.90;;;;;;4888759;29;20040;-65
2022/05/16 11:21:59;;;;;;;0.13;0.03;;;27.00;99.90;;;;;;4873767;29;20058;-64
2022/05/16 11:24:43;;;;;;;0.35;0.20;;;26.80;99.90;;;;;;4905464;29;20229;-64
2022/05/16 11:27:37;;;;;;;0.60;0.52;;;27.00;99.90;;;;;;4873304;29;20048;-63
2022/05/16 11:30:14;;;;;;;0.10;0.10;;;26.80;99.90;;;;;;4906222;29;20131;-64
2022/05/16 11:32:51;;;;;;;0.22;0.20;;;26.40;99.90;;;;;;4905288;29;20639;-64
2022/05/16 11:35:20;;;;;;;0.08;0.08;;;26.10;99.90;;;;;;4906040;29;20484;-65
2022/05/16 11:38:11;;;;;;;0.03;0.00;;;26.50;99.90;;;;;;4904781;29;20654;-65
2022/05/16 11:41:19;;;;;;;0.90;0.63;;;26.70;99.90;;;;;;4905810;29;20116;-65
2022/05/16 11:43:48;;;;;;;0.20;0.13;;;26.80;99.90;;;;;;4874091;29;20074;-64
2022/05/16 11:46:43;;;;;;;0.38;0.22;;;26.50;99.90;;;;;;4868571;29;20076;-65
2022/05/16 11:49:28;;;;;;;0.00;0.00;;;26.60;99.90;;;;;;4851826;29;20641;-64
2022/05/16 11:52:08;;;;;;;0.10;0.10;;;26.40;99.90;;;;;;4863017;29;20052;-63
2022/05/16 11:54:38;;;;;;;0.00;0.00;;;26.20;99.90;;;;;;4886301;29;20056;-64
2022/05/16 12:02:47;;;;;;;0.00;0.00;;;26.00;99.90;;;;;;4905311;29;20048;-64
2022/05/16 12:05:21;;;;;;;6.97;2.72;;;25.80;99.90;;;;;;4905825;29;20054;-64
2022/05/16 12:07:57;;;;;;;0.10;0.10;;;25.70;99.90;;;;;;4886868;29;20146;-67
2022/05/16 12:10:31;;;;;;;0.00;0.00;;;25.60;99.90;;;;;;4885925;29;20052;-66
2022/05/16 12:13:23;;;;;;;0.75;0.10;;;25.40;99.90;;;;;;4885104;29;20044;-67
2022/05/16 12:16:12;;;;;;;0.15;0.10;;;25.30;99.90;;;;;;4869892;29;20064;-67
2022/05/16 12:18:39;;;;;;;0.47;0.47;;;25.30;99.90;;;;;;4886007;29;20060;-69
2022/05/16 12:21:20;;;;;;;0.22;0.10;;;25.10;99.90;;;;;;4869461;29;20127;-67
2022/05/16 12:23:49;;;;;;;0.35;0.20;;;24.80;99.90;;;;;;4890016;29;20424;-66
2022/05/16 12:26:26;;;;;;;0.08;0.08;;;24.70;99.90;;;;;;4889610;29;20103;-68
2022/05/16 12:29:12;;;;;;;0.10;0.10;;;24.70;99.90;;;;;;4868924;29;20048;-68
2022/05/16 12:31:51;;;;;;;0.60;0.60;;;24.50;99.90;;;;;;4885196;29;20055;-68
2022/05/16 12:34:42;;;;;;;0.20;0.05;;;24.50;99.90;;;;;;4885359;29;20387;-69
2022/05/16 12:37:11;;;;;;;0.03;0.03;;;24.40;99.90;;;;;;4879011;29;20053;-69
2022/05/16 12:39:57;;;;;;;0.00;0.00;;;24.30;99.90;;;;;;4885368;29;20091;-69
2022/05/16 12:42:37;;;;;;;0.00;0.00;;;24.40;99.90;;;;;;4861684;29;20132;-66
2022/05/16 12:45:28;;;;;;;0.00;0.00;;;24.50;99.90;;;;;;4884111;29;20113;-66
2022/05/16 12:47:54;;;;;;;0.00;0.00;;;24.40;99.90;;;;;;4861438;29;20480;-67
2022/05/16 12:50:32;;;;;;;0.00;0.00;;;24.40;99.90;;;;;;4884989;29;20132;-67
2022/05/16 12:53:11;;;;;;;0.00;0.00;;;24.30;99.90;;;;;;4884964;29;20056;-67
2022/05/16 12:56:02;;;;;;;0.00;0.00;;;24.20;99.90;;;;;;4868319;29;20819;-67
2022/05/16 12:58:36;;;;;;;0.15;0.15;;;24.10;99.90;;;;;;4868648;29;20064;-66
2022/05/16 13:01:14;;;;;;;0.15;0.10;;;24.10;99.90;;;;;;4885022;29;20425;-67
2022/05/16 13:03:57;;;;;;;0.00;0.00;;;24.00;99.90;;;;;;4885467;29;20507;-66
2022/05/16 13:06:32;;;;;;;0.00;0.00;;;24.00;99.90;;;;;;4884768;29;20437;-66
2022/05/16 13:09:10;;;;;;;0.32;0.10;;;24.00;99.90;;;;;;4884455;29;20691;-66
2022/05/16 13:12:26;;;;;;;0.00;0.00;;;24.10;99.90;;;;;;4872076;29;20093;-63
2022/05/16 13:15:07;;;;;;;0.10;0.10;;;24.20;99.90;;;;;;4863375;29;22697;-64
2022/05/16 13:17:48;;;;;;;0.00;0.00;;;24.30;99.90;;;;;;4872298;29;20161;-63
2022/05/16 13:20:20;;;;;;;0.00;0.00;;;24.40;99.90;;;;;;4872527;29;20087;-65
2022/05/16 13:22:48;;;;;;;0.10;0.03;;;24.40;99.90;;;;;;4871815;29;20135;-65
2022/05/16 13:25:17;;;;;;;0.80;0.32;;;24.40;99.90;;;;;;4858582;29;20469;-63
2022/05/16 13:30:42;;;;;;;0.50;0.28;;;24.40;99.90;;;;;;4876257;29;20053;-65
2022/05/16 13:33:31;;;;;;;0.10;0.10;;;24.20;99.90;;;;;;4859279;29;20111;-64
2022/05/16 13:36:13;;;;;;;0.73;0.55;;;24.30;99.90;;;;;;4876712;29;20536;-64
2022/05/16 13:38:39;;;;;;;0.20;0.10;;;24.40;99.90;;;;;;4875696;29;20719;-64
2022/05/16 13:41:04;;;;;;;0.30;0.30;;;24.40;99.90;;;;;;4876568;29;20066;-65
2022/05/16 13:43:30;;;;;;;0.00;0.00;;;24.40;99.90;;;;;;4859964;29;20348;-65
2022/05/16 13:46:06;;;;;;;0.10;0.10;;;24.40;99.90;;;;;;4859314;29;20392;-65
2022/05/16 13:48:32;;;;;;;2.05;0.22;;;24.40;99.90;;;;;;4866342;29;20135;-65
2022/05/16 13:51:00;;;;;;;0.00;0.00;;;24.40;99.90;;;;;;4876252;29;20093;-65